createdAt,value
2018-07-16T00:00:14.056Z,77.54
2018-07-16T00:02:40.948Z,76.77
2018-07-16T00:05:07.868Z,78.18
2018-07-16T00:07:34.816Z,78.31
2018-07-16T00:10:01.697Z,78.33
2018-07-16T00:12:28.582Z,79.03
2018-07-16T00:14:55.463Z,77.55
2018-07-16T00:17:22.345Z,79.91
2018-07-16T00:19:49.228Z,80.46
2018-07-16T00:22:16.120Z,80.59
2018-07-16T00:24:43.150Z,80.71
2018-07-16T00:27:10.047Z,81.10
2018-07-16T00:29:37.087Z,82.41
2018-07-16T00:32:07.025Z,81.90
2018-07-16T00:34:33.902Z,81.88
2018-07-16T00:37:00.803Z,81.43
2018-07-16T00:39:27.713Z,80.04
2018-07-16T00:41:54.592Z,79.31
2018-07-16T00:44:21.521Z,78.74
2018-07-16T00:46:48.401Z,78.89
2018-07-16T00:49:15.335Z,79.10
2018-07-16T00:51:42.215Z,78.07
2018-07-16T00:54:09.116Z,76.28
2018-07-16T00:56:36.016Z,77.44
2018-07-16T00:59:02.883Z,76.36
2018-07-16T01:01:29.763Z,77.67
2018-07-16T01:03:56.734Z,76.87
2018-07-16T01:06:24.163Z,77.75
2018-07-16T01:08:51.084Z,75.53
2018-07-16T01:11:17.996Z,76.65
2018-07-16T01:13:45.316Z,77.87
2018-07-16T01:16:12.265Z,78.71
2018-07-16T01:18:39.164Z,79.71
2018-07-16T01:21:06.190Z,79.61
2018-07-16T01:23:33.071Z,79.33
2018-07-16T01:26:00.096Z,79.90
2018-07-16T01:28:27.032Z,80.76
2018-07-16T01:30:56.800Z,83.74
2018-07-16T01:33:27.105Z,85.44
2018-07-16T01:35:53.999Z,84.46
2018-07-16T01:38:20.942Z,83.69
2018-07-16T01:40:48.823Z,85.21
2018-07-16T01:43:15.721Z,84.83
2018-07-16T01:45:42.695Z,83.99
2018-07-16T01:48:09.587Z,84.91
2018-07-16T01:50:36.536Z,84.50
2018-07-16T01:53:03.488Z,84.16
2018-07-16T01:55:30.416Z,85.37
2018-07-16T01:57:57.356Z,85.34
2018-07-16T02:00:24.314Z,86.18
2018-07-16T02:02:51.202Z,85.41
2018-07-16T02:05:18.128Z,86.76
2018-07-16T02:07:45.078Z,88.62
2018-07-16T02:10:12.103Z,89.62
2018-07-16T02:12:38.995Z,90.14
2018-07-16T02:15:05.903Z,90.84
2018-07-16T02:17:33.151Z,89.44
2018-07-16T02:20:01.068Z,89.38
2018-07-16T02:22:28.045Z,87.25
2018-07-16T02:24:54.955Z,89.32
2018-07-16T02:27:21.940Z,88.98
2018-07-16T02:29:48.827Z,88.36
2018-07-16T02:32:15.741Z,85.95
2018-07-16T02:34:42.687Z,86.22
2018-07-16T02:37:09.588Z,87.92
2018-07-16T02:39:36.488Z,88.10
2018-07-16T02:42:03.385Z,89.04
2018-07-16T02:44:30.414Z,87.28
2018-07-16T02:46:57.299Z,88.52
2018-07-16T02:49:24.256Z,89.39
2018-07-16T02:51:51.183Z,88.29
2018-07-16T02:54:18.074Z,88.90
2018-07-16T02:56:45.117Z,90.54
2018-07-16T02:59:12.024Z,91.76
2018-07-16T03:01:38.962Z,91.48
2018-07-16T03:04:06.052Z,90.98
2018-07-16T03:06:32.956Z,90.96
2018-07-16T03:08:59.864Z,91.35
2018-07-16T03:11:26.829Z,89.59
2018-07-16T03:13:53.767Z,90.19
2018-07-16T03:16:20.703Z,91.76
2018-07-16T03:18:47.601Z,89.19
2018-07-16T03:21:14.529Z,90.78
2018-07-16T03:23:41.426Z,91.05
2018-07-16T03:26:08.344Z,91.29
2018-07-16T03:28:35.249Z,91.93
2018-07-16T03:31:02.193Z,90.89
2018-07-16T03:33:29.095Z,90.96
2018-07-16T03:35:55.996Z,91.66
2018-07-16T03:38:22.928Z,92.95
2018-07-16T03:40:49.821Z,91.79
2018-07-16T03:43:16.745Z,92.94
2018-07-16T03:45:43.674Z,94.15
2018-07-16T03:48:10.658Z,93.55
2018-07-16T03:50:38.349Z,94.54
2018-07-16T03:53:05.247Z,94.53
2018-07-16T03:55:32.144Z,94.56
2018-07-16T03:57:59.236Z,93.56
2018-07-16T04:00:26.154Z,92.95
2018-07-16T04:02:53.087Z,92.22
2018-07-16T04:05:19.970Z,91.66
2018-07-16T04:07:46.902Z,91.48
2018-07-16T04:12:44.267Z,89.11
2018-07-16T04:15:11.187Z,90.59
2018-07-16T04:17:38.089Z,90.00
2018-07-16T04:20:04.992Z,90.42
2018-07-16T04:22:32.871Z,91.04
2018-07-16T04:24:59.769Z,89.69
2018-07-16T04:27:26.709Z,90.24
2018-07-16T04:29:53.615Z,89.60
2018-07-16T04:32:20.498Z,89.78
2018-07-16T04:34:47.379Z,89.39
2018-07-16T04:37:14.295Z,88.78
2018-07-16T04:39:41.229Z,87.37
2018-07-16T04:42:07.988Z,86.01
2018-07-16T04:44:34.921Z,82.78
2018-07-16T04:47:01.828Z,80.95
2018-07-16T04:49:28.726Z,79.42
2018-07-16T04:51:55.681Z,83.03
2018-07-16T04:54:22.575Z,84.17
2018-07-16T04:56:50.428Z,85.09
2018-07-16T04:59:17.304Z,84.56
2018-07-16T05:01:44.229Z,85.47
2018-07-16T05:04:11.179Z,85.55
2018-07-16T05:06:38.072Z,85.77
2018-07-16T05:09:05.330Z,84.97
2018-07-16T05:11:32.287Z,86.55
2018-07-16T05:13:59.203Z,86.20
2018-07-16T05:16:26.118Z,87.71
2018-07-16T05:18:56.032Z,86.84
2018-07-16T05:21:22.939Z,85.54
2018-07-16T05:23:49.879Z,85.13
2018-07-16T05:26:16.809Z,85.69
2018-07-16T05:28:47.242Z,85.68
2018-07-16T05:31:14.160Z,85.20
2018-07-16T05:33:41.068Z,82.94
2018-07-16T05:36:07.959Z,79.88
2018-07-16T05:38:34.912Z,79.66
2018-07-16T05:41:01.839Z,78.06
2018-07-16T05:43:28.728Z,76.56
2018-07-16T05:45:55.595Z,76.61
2018-07-16T05:48:22.854Z,73.53
2018-07-16T05:50:49.757Z,73.66
2018-07-16T05:53:16.680Z,72.27
2018-07-16T05:55:43.577Z,72.06
2018-07-16T05:58:10.529Z,73.95
2018-07-16T06:00:37.342Z,72.36
2018-07-16T06:03:04.280Z,73.44
2018-07-16T06:05:31.193Z,73.50
2018-07-16T06:07:58.080Z,71.06
2018-07-16T06:10:25.449Z,71.29
2018-07-16T06:12:52.335Z,71.21
2018-07-16T06:15:21.062Z,70.48
2018-07-16T06:17:48.082Z,68.31
2018-07-16T06:20:16.032Z,66.79
2018-07-16T06:22:42.951Z,64.40
2018-07-16T06:25:09.984Z,61.74
2018-07-16T06:27:37.923Z,63.61
2018-07-16T06:30:04.877Z,61.14
2018-07-16T06:32:31.945Z,62.04
2018-07-16T06:34:59.213Z,60.35
2018-07-16T06:37:26.138Z,60.47
2018-07-16T06:39:53.165Z,59.35
2018-07-16T06:42:20.364Z,59.93
2018-07-16T06:44:47.330Z,59.80
2018-07-16T06:47:14.317Z,60.86
2018-07-16T06:49:41.271Z,60.81
2018-07-16T06:52:08.162Z,58.42
2018-07-16T06:54:35.147Z,57.79
2018-07-16T06:57:02.077Z,61.26
2018-07-16T06:59:29.242Z,62.03
2018-07-16T07:01:56.335Z,59.23
2018-07-16T07:04:23.235Z,62.42
2018-07-16T07:06:50.240Z,63.06
2018-07-16T07:09:17.135Z,62.17
2018-07-16T07:11:44.044Z,57.53
2018-07-16T07:14:11.001Z,59.52
2018-07-16T07:16:37.899Z,61.22
2018-07-16T07:19:04.954Z,59.74
2018-07-16T07:21:31.882Z,59.54
2018-07-16T07:23:58.809Z,58.72
2018-07-16T07:26:25.819Z,57.22
2018-07-16T07:28:52.754Z,57.24
2018-07-16T07:31:19.736Z,57.70
2018-07-16T07:33:46.629Z,57.71
2018-07-16T07:36:13.597Z,57.52
2018-07-16T07:38:40.465Z,56.50
2018-07-16T07:41:07.414Z,56.40
2018-07-16T07:43:34.349Z,54.81
2018-07-16T07:46:01.439Z,55.41
2018-07-16T07:48:29.008Z,58.82
2018-07-16T07:50:55.918Z,57.06
2018-07-16T07:53:22.815Z,56.39
2018-07-16T07:55:49.752Z,57.56
2018-07-16T07:58:16.681Z,57.64
2018-07-16T08:00:43.595Z,58.36
2018-07-16T08:05:38.503Z,57.07
2018-07-16T08:08:07.060Z,55.41
2018-07-16T08:10:35.108Z,55.07
2018-07-16T08:13:02.056Z,54.35
2018-07-16T08:15:30.577Z,55.73
2018-07-16T08:17:57.506Z,54.76
2018-07-16T08:20:25.451Z,52.19
2018-07-16T08:22:52.412Z,54.29
2018-07-16T08:25:19.791Z,51.81
2018-07-16T08:27:46.771Z,50.74
2018-07-16T08:30:13.760Z,51.12
2018-07-16T08:32:42.727Z,49.00
2018-07-16T08:35:10.555Z,47.84
2018-07-16T08:37:39.950Z,50.60
2018-07-16T08:40:07.235Z,51.55
2018-07-16T08:42:34.432Z,51.44
2018-07-16T08:45:01.372Z,49.35
2018-07-16T08:47:30.389Z,49.05
2018-07-16T08:49:57.316Z,51.32
2018-07-16T08:52:24.324Z,53.36
2018-07-16T08:54:51.240Z,55.57
2018-07-16T08:57:18.159Z,53.51
2018-07-16T08:59:49.679Z,53.81
2018-07-16T09:02:16.557Z,55.41
2018-07-16T09:04:43.481Z,53.63
2018-07-16T09:07:10.404Z,48.91
2018-07-16T09:09:37.329Z,48.48
2018-07-16T09:12:04.269Z,48.08
2018-07-16T09:14:31.188Z,49.07
2018-07-16T09:16:58.182Z,51.87
2018-07-16T09:19:25.046Z,46.55
2018-07-16T09:21:52.043Z,47.98
2018-07-16T09:24:19.032Z,48.89
2018-07-16T09:26:45.950Z,46.58
2018-07-16T09:29:12.853Z,45.50
2018-07-16T09:31:39.756Z,44.17
2018-07-16T09:34:07.084Z,45.59
2018-07-16T09:36:33.995Z,47.69
2018-07-16T09:39:00.939Z,48.26
2018-07-16T09:41:30.910Z,45.55
2018-07-16T09:43:57.807Z,47.45
2018-07-16T09:46:24.744Z,44.72
2018-07-16T09:48:52.653Z,43.27
2018-07-16T09:51:19.550Z,44.28
2018-07-16T09:53:46.490Z,44.54
2018-07-16T09:56:16.846Z,45.89
2018-07-16T09:58:43.708Z,46.46
2018-07-16T10:01:16.572Z,44.20
2018-07-16T10:03:43.483Z,43.08
2018-07-16T10:06:10.436Z,43.08
2018-07-16T10:08:37.332Z,43.02
2018-07-16T10:11:04.291Z,41.97
2018-07-16T10:13:31.236Z,41.45
2018-07-16T10:15:58.155Z,39.58
2018-07-16T10:18:25.151Z,37.42
2018-07-16T10:20:52.035Z,42.43
2018-07-16T10:23:18.947Z,43.10
2018-07-16T10:25:45.938Z,43.76
2018-07-16T10:28:12.860Z,42.86
2018-07-16T10:30:41.857Z,42.08
2018-07-16T10:33:08.675Z,41.45
2018-07-16T10:35:35.612Z,40.80
2018-07-16T10:38:02.553Z,43.09
2018-07-16T10:40:29.478Z,42.84
2018-07-16T10:42:56.382Z,43.14
2018-07-16T10:45:23.621Z,45.53
2018-07-16T10:47:51.055Z,42.52
2018-07-16T10:50:18.062Z,45.37
2018-07-16T10:52:45.107Z,46.74
2018-07-16T10:55:12.764Z,44.09
2018-07-16T10:57:39.667Z,44.98
2018-07-16T11:00:06.640Z,45.83
2018-07-16T11:02:34.993Z,44.06
2018-07-16T11:05:01.968Z,43.97
2018-07-16T11:07:28.888Z,44.59
2018-07-16T11:09:55.844Z,45.41
2018-07-16T11:12:22.777Z,43.70
2018-07-16T11:14:53.428Z,42.90
2018-07-16T11:17:20.348Z,44.98
2018-07-16T11:19:47.377Z,43.09
2018-07-16T11:22:14.343Z,42.82
2018-07-16T11:24:41.256Z,43.02
2018-07-16T11:27:08.147Z,44.73
2018-07-16T11:29:35.084Z,44.93
2018-07-16T11:32:02.428Z,41.02
2018-07-16T11:34:29.364Z,42.37
2018-07-16T11:36:56.335Z,45.35
2018-07-16T11:39:23.238Z,43.56
2018-07-16T11:41:50.171Z,41.71
2018-07-16T11:44:17.108Z,43.03
2018-07-16T11:46:44.812Z,44.24
2018-07-16T11:49:11.776Z,43.17
2018-07-16T11:51:38.684Z,44.31
2018-07-16T11:54:05.585Z,41.99
2018-07-16T11:56:32.518Z,40.80
2018-07-16T11:58:59.505Z,40.27
2018-07-16T12:01:26.390Z,42.79
2018-07-16T12:03:53.409Z,40.68
2018-07-16T12:06:22.216Z,38.71
2018-07-16T12:08:49.129Z,39.78
2018-07-16T12:11:16.086Z,39.19
2018-07-16T12:13:43.016Z,37.97
2018-07-16T12:16:09.927Z,37.69
2018-07-16T12:18:36.930Z,35.31
2018-07-16T12:21:04.200Z,36.22
2018-07-16T12:23:31.160Z,36.41
2018-07-16T12:25:58.168Z,37.55
2018-07-16T12:28:25.019Z,37.32
2018-07-16T12:30:51.933Z,38.54
2018-07-16T12:33:18.873Z,38.32
2018-07-16T12:35:45.961Z,37.51
2018-07-16T12:38:12.876Z,37.94
2018-07-16T12:40:39.796Z,38.76
2018-07-16T12:43:06.779Z,36.06
2018-07-16T12:45:33.675Z,36.73
2018-07-16T12:48:00.605Z,35.41
2018-07-16T12:50:27.525Z,34.54
2018-07-16T12:52:54.462Z,32.82
2018-07-16T12:55:21.405Z,35.86
2018-07-16T12:57:48.324Z,34.34
2018-07-16T13:00:15.264Z,36.27
2018-07-16T13:02:42.312Z,34.33
2018-07-16T13:05:10.224Z,34.72
2018-07-16T13:07:37.188Z,32.54
2018-07-16T13:10:04.099Z,32.75
2018-07-16T13:12:31.080Z,35.43
2018-07-16T13:14:57.987Z,34.15
2018-07-16T13:17:25.710Z,33.07
2018-07-16T13:19:52.642Z,38.06
2018-07-16T13:22:19.562Z,36.15
2018-07-16T13:24:46.538Z,33.58
2018-07-16T13:27:13.449Z,32.28
2018-07-16T13:29:41.360Z,34.96
2018-07-16T13:32:08.275Z,32.71
2018-07-16T13:34:35.213Z,34.02
2018-07-16T13:37:02.161Z,32.19
2018-07-16T13:39:29.043Z,34.13
2018-07-16T13:41:55.973Z,33.73
2018-07-16T13:44:22.881Z,34.60
2018-07-16T13:46:49.880Z,33.48
2018-07-16T13:49:16.727Z,32.86
2018-07-16T13:51:43.623Z,34.11
2018-07-16T13:54:11.730Z,36.05
2018-07-16T13:56:39.294Z,33.55
2018-07-16T13:59:06.217Z,33.04
2018-07-16T14:01:33.187Z,32.52
2018-07-16T14:04:00.132Z,34.72
2018-07-16T14:06:29.152Z,33.15
2018-07-16T14:08:56.085Z,33.48
2018-07-16T14:11:23.060Z,33.20
2018-07-16T14:13:49.981Z,33.43
2018-07-16T14:16:17.147Z,32.02
2018-07-16T14:18:44.085Z,31.83
2018-07-16T14:21:11.027Z,31.38
2018-07-16T14:23:38.057Z,31.69
2018-07-16T14:26:05.134Z,29.96
2018-07-16T14:28:32.179Z,32.17
2018-07-16T14:30:59.130Z,31.66
2018-07-16T14:33:26.086Z,30.71
2018-07-16T14:35:53.082Z,31.56
2018-07-16T14:38:20.013Z,31.29
2018-07-16T14:40:47.080Z,30.98
2018-07-16T14:43:14.145Z,31.88
2018-07-16T14:45:41.047Z,31.34
2018-07-16T14:48:07.983Z,30.10
2018-07-16T14:50:34.897Z,31.24
2018-07-16T14:53:01.898Z,30.12
2018-07-16T14:55:28.859Z,30.81
2018-07-16T14:57:55.760Z,31.23
2018-07-16T15:00:22.731Z,29.21
2018-07-16T15:02:49.642Z,27.54
2018-07-16T15:05:17.323Z,26.55
2018-07-16T15:07:44.251Z,28.02
2018-07-16T15:10:11.299Z,27.18
2018-07-16T15:12:38.314Z,25.88
2018-07-16T15:15:05.265Z,24.56
2018-07-16T15:17:32.197Z,24.14
2018-07-16T15:19:59.235Z,23.14
2018-07-16T15:22:26.018Z,22.35
2018-07-16T15:24:52.916Z,21.93
2018-07-16T15:27:19.916Z,21.88
2018-07-16T15:29:46.881Z,21.10
2018-07-16T15:32:13.763Z,21.74
2018-07-16T15:34:40.713Z,21.80
2018-07-16T15:37:07.678Z,23.40
2018-07-16T15:39:36.492Z,23.33
2018-07-16T15:42:03.395Z,22.94
2018-07-16T15:44:30.399Z,22.02
2018-07-16T15:46:57.355Z,22.04
2018-07-16T15:49:24.274Z,22.51
2018-07-16T15:51:51.179Z,22.49
2018-07-16T15:54:18.079Z,19.26
2018-07-16T15:56:44.964Z,19.93
2018-07-16T15:59:11.900Z,19.17
2018-07-16T16:01:38.835Z,20.39
2018-07-16T16:04:05.731Z,20.10
2018-07-16T16:06:32.653Z,22.73
2018-07-16T16:08:59.624Z,24.83
2018-07-16T16:11:26.460Z,27.55
2018-07-16T16:13:53.363Z,29.04
2018-07-16T16:16:20.304Z,31.62
2018-07-16T16:18:47.209Z,32.41
2018-07-16T16:21:14.105Z,32.64
2018-07-16T16:23:41.010Z,37.48
2018-07-16T16:26:07.910Z,40.87
2018-07-16T16:28:34.804Z,38.40
2018-07-16T16:31:01.737Z,40.06
2018-07-16T16:33:28.740Z,40.74
2018-07-16T16:35:55.630Z,41.60
2018-07-16T16:38:22.533Z,40.94
2018-07-16T16:40:49.455Z,42.66
2018-07-16T16:43:16.345Z,42.67
2018-07-16T16:45:43.247Z,43.96
2018-07-16T16:48:10.159Z,45.24
2018-07-16T16:50:37.076Z,45.46
2018-07-16T16:53:03.990Z,45.31
2018-07-16T16:55:30.927Z,44.43
2018-07-16T16:57:57.829Z,43.98
2018-07-16T17:00:24.719Z,42.98
2018-07-16T17:02:51.658Z,42.66
2018-07-16T17:05:18.555Z,42.59
2018-07-16T17:07:45.451Z,43.02
2018-07-16T17:10:12.385Z,44.84
2018-07-16T17:12:39.286Z,44.24
2018-07-16T17:15:06.252Z,44.93
2018-07-16T17:17:33.185Z,44.55
2018-07-16T17:20:00.141Z,44.24
2018-07-16T17:22:27.045Z,41.91
2018-07-16T17:24:53.947Z,41.16
2018-07-16T17:27:20.857Z,38.38
2018-07-16T17:29:47.819Z,38.04
2018-07-16T17:32:14.744Z,40.08
2018-07-16T17:34:41.823Z,40.39
2018-07-16T17:37:08.721Z,34.38
2018-07-16T17:39:35.667Z,27.96
2018-07-16T17:42:02.579Z,27.16
2018-07-16T17:44:29.505Z,25.26
2018-07-16T17:46:56.390Z,26.96
2018-07-16T17:49:23.295Z,25.79
2018-07-16T17:51:50.210Z,25.63
2018-07-16T17:54:17.107Z,25.81
2018-07-16T17:56:44.044Z,27.09
2018-07-16T17:59:10.958Z,24.41
2018-07-16T18:01:37.872Z,27.32
2018-07-16T18:04:04.737Z,29.40
2018-07-16T18:06:31.840Z,31.72
2018-07-16T18:08:58.726Z,30.57
2018-07-16T18:11:25.611Z,31.69
2018-07-16T18:13:52.524Z,34.31
2018-07-16T18:16:19.418Z,35.21
2018-07-16T18:18:46.629Z,34.74
2018-07-16T18:21:13.600Z,35.70
2018-07-16T18:23:40.599Z,36.91
2018-07-16T18:26:07.529Z,37.88
2018-07-16T18:28:34.691Z,40.85
2018-07-16T18:31:01.693Z,40.58
2018-07-16T18:33:28.835Z,39.03
2018-07-16T18:35:55.741Z,43.20
2018-07-16T18:38:22.620Z,45.18
2018-07-16T18:40:49.511Z,46.55
2018-07-16T18:43:17.431Z,48.07
2018-07-16T18:45:44.325Z,46.86
2018-07-16T18:48:11.232Z,48.98
2018-07-16T18:50:38.163Z,48.30
2018-07-16T18:53:05.120Z,48.95
2018-07-16T18:55:32.065Z,50.45
2018-07-16T18:57:58.950Z,50.73
2018-07-16T19:00:25.864Z,51.53
2018-07-16T19:02:52.756Z,51.50
2018-07-16T19:05:19.739Z,51.44
2018-07-16T19:07:46.652Z,52.08
2018-07-16T19:10:13.594Z,54.58
2018-07-16T19:12:40.994Z,54.07
2018-07-16T19:15:14.115Z,55.87
2018-07-16T19:17:41.135Z,59.58
2018-07-16T19:20:08.960Z,59.35
2018-07-16T19:22:35.872Z,61.00
2018-07-16T19:25:02.820Z,61.49
2018-07-16T19:27:31.790Z,61.95
2018-07-16T19:29:58.731Z,61.91
2018-07-16T19:32:25.670Z,61.24
2018-07-16T19:34:52.829Z,59.93
2018-07-16T19:37:20.320Z,58.08
2018-07-16T19:39:47.313Z,60.25
2018-07-16T19:42:14.494Z,62.80
2018-07-16T19:44:41.428Z,57.69
2018-07-16T19:47:09.353Z,57.79
2018-07-16T19:49:38.350Z,63.87
2018-07-16T19:52:05.312Z,67.00
2018-07-16T19:54:37.666Z,64.72
2018-07-16T19:57:05.561Z,65.23
2018-07-16T19:59:32.463Z,62.77
2018-07-16T20:01:59.746Z,59.80
2018-07-16T20:04:26.714Z,60.55
2018-07-16T20:06:55.757Z,58.87
2018-07-16T20:09:22.844Z,58.53
2018-07-16T20:11:49.735Z,58.90
2018-07-16T20:14:16.685Z,59.65
2018-07-16T20:16:43.608Z,60.37
2018-07-16T20:19:11.223Z,60.40
2018-07-16T20:21:38.158Z,60.10
2018-07-16T20:24:05.583Z,59.46
2018-07-16T20:26:32.500Z,58.46
2018-07-16T20:28:59.404Z,59.62
2018-07-16T20:31:26.351Z,59.36
2018-07-16T20:33:53.277Z,60.48
2018-07-16T20:36:20.227Z,59.25
2018-07-16T20:38:47.140Z,59.65
2018-07-16T20:41:14.065Z,60.44
2018-07-16T20:43:41.255Z,62.39
2018-07-16T20:46:08.157Z,63.27
2018-07-16T20:48:35.070Z,65.15
2018-07-16T20:51:02.028Z,61.89
2018-07-16T20:53:28.945Z,66.10
2018-07-16T20:55:55.890Z,67.30
2018-07-16T20:58:22.788Z,67.13
2018-07-16T21:00:50.498Z,67.14
2018-07-16T21:03:17.494Z,68.44
2018-07-16T21:05:44.431Z,68.63
2018-07-16T21:08:14.513Z,69.70
2018-07-16T21:10:41.450Z,71.19
2018-07-16T21:13:08.442Z,71.51
2018-07-16T21:15:35.359Z,71.92
2018-07-16T21:18:02.252Z,70.33
2018-07-16T21:20:29.664Z,72.48
2018-07-16T21:22:56.574Z,74.35
2018-07-16T21:25:33.603Z,75.85
2018-07-16T21:28:00.519Z,76.81
2018-07-16T21:30:27.442Z,77.32
2018-07-16T21:32:54.347Z,78.12
2018-07-16T21:35:21.423Z,76.98
2018-07-16T21:37:48.311Z,76.33
2018-07-16T21:40:15.290Z,77.18
2018-07-16T21:42:42.131Z,76.00
2018-07-16T21:45:10.134Z,76.75
2018-07-16T21:47:37.036Z,76.45
2018-07-16T21:50:03.955Z,77.14
2018-07-16T21:52:30.847Z,77.40
2018-07-16T21:55:02.579Z,75.99
2018-07-16T21:57:32.974Z,75.68
2018-07-16T22:00:00.882Z,75.36
2018-07-16T22:02:27.997Z,74.80
2018-07-16T22:04:55.000Z,74.02
2018-07-16T22:07:21.974Z,74.30
2018-07-16T22:09:49.006Z,76.03
2018-07-16T22:12:15.905Z,77.82
2018-07-16T22:14:42.804Z,76.48
2018-07-16T22:17:10.157Z,76.46
2018-07-16T22:19:37.153Z,76.41
2018-07-16T22:22:08.335Z,75.29
2018-07-16T22:24:35.244Z,75.84
2018-07-16T22:27:02.169Z,77.31
2018-07-16T22:29:29.087Z,77.39
2018-07-16T22:31:58.956Z,77.70
2018-07-16T22:34:25.849Z,78.88
2018-07-16T22:36:52.751Z,76.87
2018-07-16T22:39:19.840Z,78.50
2018-07-16T22:41:46.739Z,78.51
2018-07-16T22:44:15.640Z,78.21
2018-07-16T22:46:42.529Z,78.18
2018-07-16T22:49:09.469Z,77.78
2018-07-16T22:51:36.356Z,78.14
2018-07-16T22:54:03.267Z,77.43
2018-07-16T22:56:30.740Z,77.48
2018-07-16T22:58:57.682Z,78.27
2018-07-16T23:01:25.598Z,77.97
2018-07-16T23:03:52.588Z,78.19
2018-07-16T23:06:19.515Z,78.21
2018-07-16T23:08:46.444Z,78.09
2018-07-16T23:11:13.362Z,80.85
2018-07-16T23:13:40.310Z,80.74
2018-07-16T23:16:07.198Z,79.05
2018-07-16T23:18:34.096Z,81.08
2018-07-16T23:21:01.007Z,80.99
2018-07-16T23:23:27.911Z,81.41
2018-07-16T23:25:54.826Z,81.75
2018-07-16T23:28:21.727Z,82.35
2018-07-16T23:30:48.633Z,81.61
2018-07-16T23:33:15.948Z,81.38
2018-07-16T23:35:42.865Z,80.58
2018-07-16T23:38:09.767Z,79.93
2018-07-16T23:40:36.683Z,81.62
2018-07-16T23:43:03.589Z,82.85
2018-07-16T23:45:30.517Z,83.93
2018-07-16T23:47:57.424Z,84.60
2018-07-16T23:50:24.393Z,84.88
2018-07-16T23:52:51.226Z,84.71
2018-07-16T23:55:18.148Z,83.91
2018-07-16T23:57:45.263Z,82.58
